createdAt,value
2023-05-18T00:01:23.406Z,99.90
2023-05-18T00:03:55.178Z,99.90
2023-05-18T00:06:22.718Z,99.90
2023-05-18T00:08:49.800Z,99.90
2023-05-18T00:11:17.324Z,99.90
2023-05-18T00:13:44.410Z,99.90
2023-05-18T00:16:13.787Z,99.90
2023-05-18T00:18:41.067Z,99.90
2023-05-18T00:21:09.252Z,99.90
2023-05-18T00:23:39.695Z,99.90
2023-05-18T00:26:06.731Z,99.90
2023-05-18T00:28:33.804Z,99.90
2023-05-18T00:31:00.985Z,99.90
2023-05-18T00:33:28.228Z,99.90
2023-05-18T00:35:57.412Z,99.90
2023-05-18T00:38:24.584Z,99.90
2023-05-18T00:40:51.764Z,99.90
2023-05-18T00:43:20.098Z,99.90
2023-05-18T00:45:47.079Z,99.90
2023-05-18T00:48:18.924Z,99.90
2023-05-18T00:50:46.404Z,99.90
2023-05-18T00:53:13.402Z,99.90
2023-05-18T00:55:40.602Z,99.90
2023-05-18T00:58:07.671Z,99.90
2023-05-18T01:00:37.812Z,99.90
2023-05-18T01:03:05.412Z,99.90
2023-05-18T01:05:32.676Z,99.90
2023-05-18T01:08:00.134Z,99.90
2023-05-18T01:10:27.232Z,99.90
2023-05-18T01:13:02.932Z,99.90
2023-05-18T01:15:38.847Z,99.90
2023-05-18T01:18:22.432Z,99.90
2023-05-18T01:21:08.418Z,99.90
2023-05-18T01:24:25.915Z,99.90
2023-05-18T01:26:58.924Z,99.90
2023-05-18T01:29:29.572Z,99.90
2023-05-18T01:31:57.875Z,99.90
2023-05-18T01:34:25.086Z,99.90
2023-05-18T01:36:52.124Z,99.90
2023-05-18T01:39:19.669Z,99.90
2023-05-18T01:41:55.294Z,99.90
2023-05-18T01:44:34.291Z,99.90
2023-05-18T01:47:13.963Z,99.90
2023-05-18T01:49:59.415Z,99.90
2023-05-18T01:52:44.221Z,99.90
2023-05-18T01:55:14.443Z,99.90
2023-05-18T01:57:44.615Z,99.90
2023-05-18T02:00:12.899Z,99.90
2023-05-18T02:02:40.038Z,99.90
2023-05-18T02:05:07.776Z,99.90
2023-05-18T02:07:34.850Z,99.90
2023-05-18T02:10:02.032Z,99.90
2023-05-18T02:12:29.101Z,99.90
2023-05-18T02:14:58.390Z,99.90
2023-05-18T02:17:26.537Z,99.90
2023-05-18T02:19:53.621Z,99.90
2023-05-18T02:22:20.902Z,99.90
2023-05-18T02:24:47.999Z,99.90
2023-05-18T02:27:15.504Z,99.90
2023-05-18T02:29:42.478Z,99.90
2023-05-18T02:32:09.756Z,99.90
2023-05-18T02:34:38.445Z,99.90
2023-05-18T02:37:05.623Z,99.90
2023-05-18T02:39:34.054Z,99.90
2023-05-18T02:42:01.146Z,99.90
2023-05-18T02:44:28.284Z,99.90
2023-05-18T02:46:55.218Z,99.90
2023-05-18T02:49:22.167Z,99.90
2023-05-18T02:51:49.240Z,99.90
2023-05-18T02:54:16.203Z,99.90
2023-05-18T02:56:43.190Z,99.90
2023-05-18T02:59:10.344Z,99.90
2023-05-18T03:01:37.834Z,99.90
2023-05-18T03:04:04.893Z,99.90
2023-05-18T03:06:32.547Z,99.90
2023-05-18T03:08:59.585Z,99.90
2023-05-18T03:11:26.594Z,99.90
2023-05-18T03:13:53.635Z,99.90
2023-05-18T03:16:20.720Z,99.90
2023-05-18T03:18:47.747Z,99.90
2023-05-18T03:21:14.869Z,99.90
2023-05-18T03:23:41.822Z,99.90
2023-05-18T03:26:11.892Z,99.90
2023-05-18T03:28:39.627Z,99.90
2023-05-18T03:31:06.877Z,99.90
2023-05-18T03:33:34.369Z,99.90
2023-05-18T03:36:04.824Z,99.90
2023-05-18T03:38:32.037Z,99.90
2023-05-18T03:40:59.143Z,99.90
2023-05-18T03:43:26.251Z,99.90
2023-05-18T03:45:53.789Z,99.90
2023-05-18T03:48:21.874Z,99.90
2023-05-18T03:50:49.519Z,99.90
2023-05-18T03:53:21.526Z,99.90
2023-05-18T03:55:52.373Z,99.90
2023-05-18T03:58:22.716Z,99.90
2023-05-18T04:00:51.164Z,99.90
2023-05-18T04:03:18.227Z,99.90
2023-05-18T04:05:46.113Z,99.90
2023-05-18T04:08:15.995Z,99.90
2023-05-18T04:10:43.585Z,99.90
2023-05-18T04:13:11.023Z,99.90
2023-05-18T04:15:38.281Z,99.90
2023-05-18T04:18:05.454Z,99.90
2023-05-18T04:20:32.724Z,99.90
2023-05-18T04:23:00.214Z,99.90
2023-05-18T04:25:28.429Z,99.90
2023-05-18T04:27:56.954Z,99.90
2023-05-18T04:30:26.753Z,99.90
2023-05-18T04:32:54.786Z,99.90
2023-05-18T04:35:21.910Z,99.90
2023-05-18T04:37:48.877Z,99.90
2023-05-18T04:40:17.577Z,99.90
2023-05-18T04:42:47.706Z,99.90
2023-05-18T04:45:17.350Z,99.90
2023-05-18T04:47:46.726Z,99.90
2023-05-18T04:50:18.197Z,99.90
2023-05-18T04:52:49.111Z,99.90
2023-05-18T04:55:27.874Z,99.90
2023-05-18T04:58:00.479Z,99.90
2023-05-18T05:00:29.484Z,99.90
2023-05-18T05:02:57.484Z,99.90
2023-05-18T05:05:26.157Z,99.90
2023-05-18T05:07:54.602Z,99.90
2023-05-18T05:10:22.163Z,99.90
2023-05-18T05:12:52.618Z,99.90
2023-05-18T05:15:20.233Z,99.90
2023-05-18T05:17:48.148Z,99.90
2023-05-18T05:20:15.575Z,99.90
2023-05-18T05:22:42.631Z,99.90
2023-05-18T05:25:09.873Z,99.90
2023-05-18T05:27:36.929Z,99.90
2023-05-18T05:30:05.021Z,99.90
2023-05-18T05:32:32.047Z,99.90
2023-05-18T05:34:59.007Z,99.90
2023-05-18T05:37:26.240Z,99.90
2023-05-18T05:39:53.362Z,99.90
2023-05-18T05:42:20.303Z,99.90
2023-05-18T05:44:47.314Z,99.90
2023-05-18T05:47:14.602Z,99.90
2023-05-18T05:49:41.608Z,99.90
2023-05-18T05:52:08.790Z,99.90
2023-05-18T05:54:35.967Z,99.90
2023-05-18T05:57:04.035Z,99.90
2023-05-18T05:59:31.365Z,99.90
2023-05-18T06:01:58.654Z,99.90
2023-05-18T06:04:25.755Z,99.90
2023-05-18T06:06:52.831Z,99.90
2023-05-18T06:09:20.181Z,99.90
2023-05-18T06:11:47.156Z,99.90
2023-05-18T06:14:14.285Z,99.90
2023-05-18T06:16:41.374Z,99.90
2023-05-18T06:19:08.729Z,99.90
2023-05-18T06:21:36.022Z,99.90
2023-05-18T06:24:05.160Z,99.90
2023-05-18T06:26:32.531Z,99.90
2023-05-18T06:28:59.580Z,99.90
2023-05-18T06:31:28.312Z,99.90
2023-05-18T06:33:57.122Z,99.90
2023-05-18T06:36:24.093Z,99.90
2023-05-18T06:38:51.129Z,99.90
2023-05-18T06:41:18.163Z,99.90
2023-05-18T06:43:45.174Z,99.90
2023-05-18T06:46:26.665Z,99.90
2023-05-18T06:48:54.341Z,99.90
2023-05-18T06:51:21.498Z,99.90
2023-05-18T06:53:48.691Z,99.90
2023-05-18T06:56:16.801Z,99.90
2023-05-18T06:58:43.939Z,99.50
2023-05-18T07:01:11.477Z,98.90
2023-05-18T07:03:38.722Z,97.90
2023-05-18T07:06:06.237Z,96.40
2023-05-18T07:08:33.577Z,96.10
2023-05-18T07:11:02.624Z,95.70
2023-05-18T07:13:30.433Z,95.60
2023-05-18T07:15:58.209Z,95.40
2023-05-18T07:18:25.379Z,96.10
2023-05-18T07:20:52.520Z,95.70
2023-05-18T07:23:19.551Z,95.50
2023-05-18T07:25:46.875Z,95.90
2023-05-18T07:28:13.990Z,95.70
2023-05-18T07:30:41.040Z,94.70
2023-05-18T07:33:08.206Z,94.90
2023-05-18T07:35:35.251Z,95.40
2023-05-18T07:38:02.381Z,95.50
2023-05-18T07:40:29.401Z,94.30
2023-05-18T07:42:56.661Z,94.20
2023-05-18T07:45:24.071Z,94.10
2023-05-18T07:47:51.244Z,94.10
2023-05-18T07:50:19.270Z,94.60
2023-05-18T07:52:46.651Z,94.60
2023-05-18T07:55:13.946Z,94.40
2023-05-18T07:57:40.965Z,94.10
2023-05-18T08:00:09.993Z,94.30
2023-05-18T08:02:37.976Z,94.00
2023-05-18T08:05:05.632Z,94.30
2023-05-18T08:07:33.591Z,94.10
2023-05-18T08:10:00.694Z,93.70
2023-05-18T08:12:29.055Z,93.50
2023-05-18T08:14:56.875Z,93.40
2023-05-18T08:17:23.952Z,92.10
2023-05-18T08:19:53.892Z,91.80
2023-05-18T08:22:21.297Z,92.90
2023-05-18T08:24:48.470Z,92.60
2023-05-18T08:27:15.654Z,92.80
2023-05-18T08:29:42.639Z,91.90
2023-05-18T08:32:09.711Z,92.50
2023-05-18T08:34:37.107Z,91.00
2023-05-18T08:37:04.640Z,90.90
2023-05-18T08:39:34.301Z,90.20
2023-05-18T08:42:04.403Z,91.30
2023-05-18T08:44:38.901Z,91.20
2023-05-18T08:47:11.097Z,90.60
2023-05-18T08:49:41.570Z,89.40
2023-05-18T08:52:09.778Z,89.70
2023-05-18T08:54:37.900Z,89.70
2023-05-18T08:57:10.177Z,90.00
2023-05-18T08:59:41.671Z,90.10
2023-05-18T09:02:09.068Z,90.60
2023-05-18T09:04:38.578Z,90.40
2023-05-18T09:07:06.979Z,90.20
2023-05-18T09:09:35.578Z,90.20
2023-05-18T09:12:05.604Z,90.10
2023-05-18T09:14:34.317Z,90.40
2023-05-18T09:17:01.387Z,89.20
2023-05-18T09:19:28.899Z,89.70
2023-05-18T09:21:55.928Z,90.60
2023-05-18T09:24:24.940Z,89.80
2023-05-18T09:26:52.416Z,86.80
2023-05-18T09:29:24.413Z,88.00
2023-05-18T09:31:52.300Z,89.70
2023-05-18T09:34:19.577Z,89.30
2023-05-18T09:36:58.003Z,89.20
2023-05-18T09:39:25.055Z,90.50
2023-05-18T09:41:58.296Z,90.30
2023-05-18T09:44:35.202Z,91.20
2023-05-18T09:47:02.811Z,90.80
2023-05-18T09:49:33.248Z,90.40
2023-05-18T09:52:00.520Z,90.90
2023-05-18T09:54:27.596Z,90.70
2023-05-18T09:57:09.029Z,90.20
2023-05-18T09:59:37.757Z,89.70
2023-05-18T10:02:06.198Z,90.20
2023-05-18T10:04:41.707Z,91.00
2023-05-18T10:07:13.115Z,87.20
2023-05-18T10:09:45.178Z,90.70
2023-05-18T10:12:14.458Z,91.20
2023-05-18T10:14:43.377Z,90.20
2023-05-18T10:17:16.284Z,85.30
2023-05-18T10:19:45.186Z,85.30
2023-05-18T10:22:15.986Z,85.30
2023-05-18T10:24:45.993Z,86.30
2023-05-18T10:27:16.816Z,87.40
2023-05-18T10:29:44.478Z,89.30
2023-05-18T10:32:13.306Z,90.30
2023-05-18T10:34:42.004Z,89.40
2023-05-18T10:37:12.063Z,89.00
2023-05-18T10:39:45.314Z,88.50
2023-05-18T10:42:14.659Z,88.80
2023-05-18T10:44:41.908Z,88.40
2023-05-18T10:47:11.724Z,88.40
2023-05-18T10:49:42.669Z,90.80
2023-05-18T10:52:11.823Z,90.00
2023-05-18T10:54:41.677Z,88.10
2023-05-18T10:57:13.451Z,88.80
2023-05-18T10:59:47.396Z,85.50
2023-05-18T11:02:18.406Z,85.40
2023-05-18T11:04:53.281Z,85.30
2023-05-18T11:07:21.800Z,84.10
2023-05-18T11:09:49.365Z,85.70
2023-05-18T11:12:22.776Z,84.60
2023-05-18T11:14:54.888Z,83.30
2023-05-18T11:17:26.916Z,84.00
2023-05-18T11:20:06.008Z,84.90
2023-05-18T11:22:57.997Z,83.40
2023-05-18T11:25:25.636Z,88.00
2023-05-18T11:27:54.032Z,85.00
2023-05-18T11:30:36.710Z,85.20
2023-05-18T11:33:16.066Z,85.80
2023-05-18T11:36:11.814Z,87.10
2023-05-18T11:38:55.183Z,84.80
2023-05-18T11:41:44.748Z,84.10
2023-05-18T11:44:21.572Z,84.20
2023-05-18T11:46:51.476Z,85.10
2023-05-18T11:49:22.071Z,87.10
2023-05-18T11:52:13.516Z,85.70
2023-05-18T11:54:47.372Z,87.20
2023-05-18T11:57:16.422Z,86.70
2023-05-18T11:59:45.303Z,87.00
2023-05-18T12:02:18.292Z,87.60
2023-05-18T12:04:51.161Z,89.20
2023-05-18T12:07:20.136Z,85.90
2023-05-18T12:09:48.335Z,85.50
2023-05-18T12:12:17.405Z,86.80
2023-05-18T12:14:45.792Z,86.20
2023-05-18T12:17:12.937Z,86.10
2023-05-18T12:19:49.479Z,85.20
2023-05-18T12:22:17.067Z,84.70
2023-05-18T12:24:47.104Z,85.00
2023-05-18T12:27:16.275Z,84.50
2023-05-18T12:29:43.924Z,84.20
2023-05-18T12:32:12.869Z,83.90
2023-05-18T12:34:40.082Z,84.40
2023-05-18T12:37:10.230Z,85.70
2023-05-18T12:39:37.672Z,86.50
2023-05-18T12:42:17.886Z,85.80
2023-05-18T12:44:45.624Z,83.30
2023-05-18T12:47:13.822Z,84.10
2023-05-18T12:49:42.620Z,85.70
2023-05-18T12:52:10.935Z,83.50
2023-05-18T12:54:49.833Z,84.20
2023-05-18T12:57:16.922Z,86.80
2023-05-18T12:59:53.183Z,83.50
2023-05-18T13:02:36.587Z,82.80
2023-05-18T13:05:11.375Z,85.10
2023-05-18T13:07:43.606Z,82.80
2023-05-18T13:10:11.949Z,84.10
2023-05-18T13:12:49.949Z,83.80
2023-05-18T13:15:17.993Z,81.40
2023-05-18T13:18:05.878Z,83.00
2023-05-18T13:20:41.907Z,84.10
2023-05-18T13:23:10.523Z,82.10
2023-05-18T13:25:38.272Z,83.50
2023-05-18T13:28:06.353Z,81.40
2023-05-18T13:30:33.824Z,85.20
2023-05-18T13:33:01.001Z,83.10
2023-05-18T13:35:28.581Z,83.00
2023-05-18T13:37:56.138Z,82.20
2023-05-18T13:40:25.833Z,82.00
2023-05-18T13:42:53.249Z,81.60
2023-05-18T13:45:21.897Z,81.40
2023-05-18T13:47:53.693Z,81.60
2023-05-18T13:50:21.994Z,82.70
2023-05-18T13:52:49.064Z,82.10
2023-05-18T13:55:16.432Z,82.30
2023-05-18T13:57:44.567Z,82.10
2023-05-18T14:00:13.209Z,83.60
2023-05-18T14:02:47.369Z,83.20
2023-05-18T14:05:15.383Z,83.20
2023-05-18T14:07:43.042Z,83.30
2023-05-18T14:10:11.836Z,82.00
2023-05-18T14:12:39.605Z,80.20
2023-05-18T14:15:07.120Z,81.20
2023-05-18T14:17:34.971Z,82.20
2023-05-18T14:20:03.784Z,82.30
2023-05-18T14:22:30.780Z,81.90
2023-05-18T14:24:57.908Z,82.20
2023-05-18T14:27:24.848Z,81.90
2023-05-18T14:29:51.938Z,81.20
2023-05-18T14:32:21.120Z,82.30
2023-05-18T14:34:51.729Z,81.80
2023-05-18T14:37:19.316Z,81.60
2023-05-18T14:39:46.543Z,81.60
2023-05-18T14:42:13.616Z,80.70
2023-05-18T14:44:40.728Z,81.10
2023-05-18T14:47:07.771Z,81.40
2023-05-18T14:49:34.838Z,80.90
2023-05-18T14:52:01.757Z,81.50
2023-05-18T14:54:28.802Z,80.30
2023-05-18T14:56:55.757Z,82.70
2023-05-18T14:59:23.689Z,81.70
2023-05-18T15:01:50.925Z,81.50
2023-05-18T15:04:17.966Z,81.30
2023-05-18T15:06:45.112Z,82.30
2023-05-18T15:09:12.373Z,82.10
2023-05-18T15:11:39.315Z,81.30
2023-05-18T15:14:06.411Z,82.10
2023-05-18T15:16:33.479Z,81.00
2023-05-18T15:19:00.573Z,80.10
2023-05-18T15:21:27.602Z,81.30
2023-05-18T15:23:54.779Z,80.70
2023-05-18T15:26:22.362Z,80.90
2023-05-18T15:28:49.453Z,81.70
2023-05-18T15:31:17.282Z,81.90
2023-05-18T15:33:44.409Z,81.70
2023-05-18T15:36:11.617Z,80.90
2023-05-18T15:38:38.604Z,80.70
2023-05-18T15:41:05.671Z,80.80
2023-05-18T15:43:33.835Z,81.10
2023-05-18T15:46:01.109Z,80.40
2023-05-18T15:48:29.812Z,82.20
2023-05-18T15:50:56.884Z,81.70
2023-05-18T15:53:23.997Z,82.20
2023-05-18T15:55:57.512Z,81.50
2023-05-18T15:58:26.720Z,82.60
2023-05-18T16:00:53.847Z,81.90
2023-05-18T16:03:21.094Z,82.10
2023-05-18T16:05:48.224Z,83.70
2023-05-18T16:08:15.312Z,82.60
2023-05-18T16:10:42.285Z,82.80
2023-05-18T16:13:09.359Z,83.20
2023-05-18T16:15:36.478Z,83.00
2023-05-18T16:18:03.811Z,85.40
2023-05-18T16:20:31.168Z,84.50
2023-05-18T16:22:59.552Z,84.50
2023-05-18T16:25:26.718Z,84.40
2023-05-18T16:27:53.781Z,83.80
2023-05-18T16:30:20.956Z,86.50
2023-05-18T16:32:48.072Z,85.30
2023-05-18T16:35:15.178Z,88.00
2023-05-18T16:37:42.173Z,89.90
2023-05-18T16:40:09.550Z,88.90
2023-05-18T16:42:36.793Z,86.20
2023-05-18T16:45:04.082Z,87.70
2023-05-18T16:47:32.817Z,85.70
2023-05-18T16:50:00.575Z,85.80
2023-05-18T16:52:27.791Z,86.60
2023-05-18T16:54:54.801Z,85.20
2023-05-18T16:57:22.318Z,87.20
2023-05-18T16:59:49.592Z,85.20
2023-05-18T17:02:18.041Z,86.60
2023-05-18T17:04:46.065Z,85.90
2023-05-18T17:07:13.274Z,87.00
2023-05-18T17:09:41.806Z,87.00
2023-05-18T17:12:12.408Z,88.60
2023-05-18T17:14:39.875Z,86.50
2023-05-18T17:17:07.844Z,88.20
2023-05-18T17:19:35.370Z,88.10
2023-05-18T17:22:04.009Z,88.40
2023-05-18T17:24:31.364Z,87.80
2023-05-18T17:26:58.583Z,88.10
2023-05-18T17:29:25.751Z,88.00
2023-05-18T17:31:52.915Z,88.30
2023-05-18T17:34:19.977Z,88.50
2023-05-18T17:36:47.076Z,89.00
2023-05-18T17:39:16.544Z,89.00
2023-05-18T17:41:44.100Z,89.00
2023-05-18T17:44:14.413Z,89.60
2023-05-18T17:46:42.096Z,89.60
2023-05-18T17:49:11.389Z,90.30
2023-05-18T17:51:38.667Z,90.20
2023-05-18T17:54:08.703Z,90.00
2023-05-18T17:56:36.097Z,90.00
2023-05-18T17:59:04.183Z,90.10
2023-05-18T18:01:32.104Z,90.50
2023-05-18T18:03:59.751Z,90.40
2023-05-18T18:06:27.062Z,90.40
2023-05-18T18:08:57.725Z,90.70
2023-05-18T18:11:26.212Z,90.60
2023-05-18T18:13:54.028Z,90.80
2023-05-18T18:16:21.786Z,90.90
2023-05-18T18:18:49.295Z,90.90
2023-05-18T18:21:16.464Z,91.20
2023-05-18T18:23:43.583Z,90.70
2023-05-18T18:26:10.988Z,90.70
2023-05-18T18:28:38.133Z,90.60
2023-05-18T18:31:05.491Z,90.70
2023-05-18T18:33:35.499Z,90.90
2023-05-18T18:36:03.947Z,91.10
2023-05-18T18:38:31.365Z,91.10
2023-05-18T18:41:01.840Z,91.50
2023-05-18T18:43:29.148Z,91.90
2023-05-18T18:45:57.367Z,91.90
2023-05-18T18:48:25.237Z,91.90
2023-05-18T18:50:52.748Z,91.60
2023-05-18T18:53:19.869Z,92.40
2023-05-18T18:55:47.028Z,94.30
2023-05-18T18:58:14.128Z,95.20
2023-05-18T19:00:41.429Z,96.00
2023-05-18T19:03:10.084Z,96.50
2023-05-18T19:05:37.519Z,97.00
2023-05-18T19:08:04.732Z,97.40
2023-05-18T19:10:33.116Z,97.70
2023-05-18T19:13:05.006Z,97.90
2023-05-18T19:15:36.770Z,98.10
2023-05-18T19:18:04.117Z,98.50
2023-05-18T19:20:31.333Z,98.80
2023-05-18T19:22:58.535Z,98.70
2023-05-18T19:25:26.400Z,98.70
2023-05-18T19:27:54.303Z,98.80
2023-05-18T19:30:22.587Z,99.00
2023-05-18T19:32:53.419Z,99.10
2023-05-18T19:35:21.732Z,99.40
2023-05-18T19:37:48.745Z,99.40
2023-05-18T19:40:16.386Z,99.60
2023-05-18T19:42:43.567Z,99.60
2023-05-18T19:45:10.690Z,99.70
2023-05-18T19:47:37.742Z,99.80
2023-05-18T19:50:05.182Z,99.90
2023-05-18T19:52:33.621Z,99.90
2023-05-18T19:55:02.063Z,99.90
2023-05-18T19:57:29.481Z,99.90
2023-05-18T19:59:56.470Z,99.90
2023-05-18T20:02:23.431Z,99.90
2023-05-18T20:04:51.224Z,99.90
2023-05-18T20:07:18.236Z,99.90
2023-05-18T20:09:45.236Z,99.90
2023-05-18T20:12:12.373Z,99.90
2023-05-18T20:14:39.365Z,99.90
2023-05-18T20:17:06.883Z,99.90
2023-05-18T20:19:35.731Z,99.90
2023-05-18T20:22:03.268Z,99.90
2023-05-18T20:24:30.451Z,99.90
2023-05-18T20:26:57.365Z,99.90
2023-05-18T20:29:24.296Z,99.90
2023-05-18T20:31:51.535Z,99.90
2023-05-18T20:34:18.504Z,99.90
2023-05-18T20:36:45.413Z,99.90
2023-05-18T20:39:12.535Z,99.90
2023-05-18T20:41:40.413Z,99.90
2023-05-18T20:44:10.617Z,99.90
2023-05-18T20:46:38.172Z,99.90
2023-05-18T20:49:05.671Z,99.90
2023-05-18T20:51:32.719Z,99.90
2023-05-18T20:53:59.658Z,99.90
2023-05-18T20:56:27.472Z,99.90
2023-05-18T20:58:54.594Z,99.90
2023-05-18T21:01:21.756Z,99.90
2023-05-18T21:03:48.917Z,99.90
2023-05-18T21:06:16.038Z,99.90
2023-05-18T21:08:45.644Z,99.90
2023-05-18T21:11:12.625Z,99.90
2023-05-18T21:13:39.728Z,99.90
2023-05-18T21:16:08.612Z,99.90
2023-05-18T21:18:36.106Z,99.90
2023-05-18T21:21:04.874Z,99.90
2023-05-18T21:23:31.837Z,99.90
2023-05-18T21:25:58.872Z,99.90
2023-05-18T21:28:25.915Z,99.90
2023-05-18T21:30:54.243Z,99.90
2023-05-18T21:33:22.298Z,99.90
2023-05-18T21:35:49.536Z,99.90
2023-05-18T21:38:17.498Z,99.90
2023-05-18T21:40:44.558Z,99.90
2023-05-18T21:43:12.840Z,99.90
2023-05-18T21:45:40.536Z,99.90
2023-05-18T21:48:07.952Z,99.90
2023-05-18T21:50:35.653Z,99.90
2023-05-18T21:53:03.532Z,99.90
2023-05-18T21:55:34.039Z,99.90
2023-05-18T21:58:01.168Z,99.90
2023-05-18T22:00:28.715Z,99.90
2023-05-18T22:02:56.156Z,99.90
2023-05-18T22:05:23.248Z,99.90
2023-05-18T22:07:50.428Z,99.90
2023-05-18T22:10:18.316Z,99.90
2023-05-18T22:12:45.604Z,99.90
2023-05-18T22:15:12.816Z,99.90
2023-05-18T22:17:40.269Z,99.90
2023-05-18T22:20:11.712Z,99.90
2023-05-18T22:22:40.464Z,99.90
2023-05-18T22:25:07.997Z,99.90
2023-05-18T22:27:36.912Z,99.90
2023-05-18T22:30:06.259Z,99.90
2023-05-18T22:32:33.646Z,99.90
2023-05-18T22:35:02.021Z,99.90
2023-05-18T22:37:29.140Z,99.90
2023-05-18T22:39:56.213Z,99.90
2023-05-18T22:42:23.269Z,99.90
2023-05-18T22:44:50.222Z,99.90
2023-05-18T22:47:20.133Z,99.90
2023-05-18T22:49:47.855Z,99.90
2023-05-18T22:52:16.522Z,99.90
2023-05-18T22:54:43.776Z,99.90
2023-05-18T22:57:10.797Z,99.90
2023-05-18T22:59:37.905Z,99.90
2023-05-18T23:02:05.723Z,99.90
2023-05-18T23:04:34.069Z,99.90
2023-05-18T23:07:01.942Z,99.90
2023-05-18T23:09:30.697Z,99.90
2023-05-18T23:11:59.725Z,99.90
2023-05-18T23:14:32.535Z,99.90
2023-05-18T23:17:00.386Z,99.90
2023-05-18T23:19:27.578Z,99.90
2023-05-18T23:21:55.638Z,99.90
2023-05-18T23:24:22.816Z,99.90
2023-05-18T23:26:49.806Z,99.90
2023-05-18T23:29:16.909Z,99.90
2023-05-18T23:31:43.993Z,99.90
2023-05-18T23:34:11.316Z,99.90
2023-05-18T23:36:42.796Z,99.90
2023-05-18T23:39:10.665Z,99.90
2023-05-18T23:41:38.505Z,99.90
2023-05-18T23:44:06.622Z,99.90
2023-05-18T23:46:34.538Z,99.90
2023-05-18T23:49:01.988Z,99.90
2023-05-18T23:51:32.162Z,99.90
2023-05-18T23:54:00.456Z,99.90
2023-05-18T23:56:28.570Z,99.90
2023-05-18T23:58:56.068Z,99.90
